createdAt,value
2019-02-25T00:01:03.989Z,-3.48
2019-02-25T00:02:09.276Z,-3.51
2019-02-25T00:03:12.927Z,-3.56
2019-02-25T00:04:16.556Z,-3.64
2019-02-25T00:05:20.287Z,-3.54
2019-02-25T00:06:23.951Z,-3.53
2019-02-25T00:07:27.590Z,-3.66
2019-02-25T00:08:31.223Z,-3.72
2019-02-25T00:09:34.861Z,-3.71
2019-02-25T00:10:38.491Z,-3.61
2019-02-25T00:11:42.085Z,-3.53
2019-02-25T00:12:45.725Z,-3.41
2019-02-25T00:13:49.289Z,-3.42
2019-02-25T00:14:52.881Z,-3.53
2019-02-25T00:15:56.521Z,-3.62
2019-02-25T00:17:00.189Z,-3.56
2019-02-25T00:18:03.931Z,-3.48
2019-02-25T00:19:07.574Z,-3.49
2019-02-25T00:20:12.406Z,-3.62
2019-02-25T00:21:16.044Z,-3.63
2019-02-25T00:22:19.712Z,-3.64
2019-02-25T00:23:23.380Z,-3.66
2019-02-25T00:24:27.096Z,-3.66
2019-02-25T00:25:30.736Z,-3.69
2019-02-25T00:26:34.709Z,-3.78
2019-02-25T00:27:38.483Z,-3.72
2019-02-25T00:28:42.141Z,-3.68
2019-02-25T00:29:45.776Z,-3.69
2019-02-25T00:30:49.424Z,-3.78
2019-02-25T00:31:53.063Z,-3.81
2019-02-25T00:32:56.734Z,-3.88
2019-02-25T00:34:00.366Z,-3.99
2019-02-25T00:35:04.109Z,-3.90
2019-02-25T00:36:07.744Z,-3.84
2019-02-25T00:37:11.520Z,-3.81
2019-02-25T00:38:15.188Z,-3.91
2019-02-25T00:39:18.840Z,-4.03
2019-02-25T00:40:22.528Z,-4.09
2019-02-25T00:41:26.117Z,-4.01
2019-02-25T00:42:30.111Z,-4.01
2019-02-25T00:43:33.778Z,-3.97
2019-02-25T00:44:37.417Z,-3.89
2019-02-25T00:45:41.057Z,-3.83
2019-02-25T00:46:44.696Z,-3.88
2019-02-25T00:47:48.331Z,-3.94
2019-02-25T00:48:52.013Z,-3.93
2019-02-25T00:49:55.647Z,-3.91
2019-02-25T00:50:59.286Z,-3.94
2019-02-25T00:52:02.929Z,-4.01
2019-02-25T00:53:06.616Z,-4.05
2019-02-25T00:54:10.284Z,-4.17
2019-02-25T00:55:14.828Z,-4.13
2019-02-25T00:56:18.456Z,-4.14
2019-02-25T00:57:22.024Z,-4.21
2019-02-25T00:58:25.668Z,-4.23
2019-02-25T00:59:29.714Z,-4.28
2019-02-25T01:00:33.364Z,-4.37
2019-02-25T01:01:37.000Z,-4.34
2019-02-25T01:02:40.636Z,-4.25
2019-02-25T01:03:44.360Z,-4.18
2019-02-25T01:04:48.519Z,-4.11
2019-02-25T01:05:52.235Z,-4.12
2019-02-25T01:06:56.067Z,-4.13
2019-02-25T01:07:59.705Z,-4.09
2019-02-25T01:09:04.118Z,-4.21
2019-02-25T01:10:10.641Z,-4.31
2019-02-25T01:11:14.275Z,-4.28
2019-02-25T01:12:18.003Z,-4.22
2019-02-25T01:13:21.636Z,-4.16
2019-02-25T01:14:25.283Z,-4.16
2019-02-25T01:15:29.238Z,-4.25
2019-02-25T01:16:32.873Z,-4.30
2019-02-25T01:17:36.519Z,-4.27
2019-02-25T01:18:40.494Z,-4.27
2019-02-25T01:19:44.133Z,-4.27
2019-02-25T01:20:47.805Z,-4.30
2019-02-25T01:21:51.435Z,-4.31
2019-02-25T01:22:55.511Z,-4.33
2019-02-25T01:23:59.078Z,-4.40
2019-02-25T01:25:02.712Z,-4.51
2019-02-25T01:26:06.388Z,-4.45
2019-02-25T01:27:10.023Z,-4.30
2019-02-25T01:28:13.654Z,-4.20
2019-02-25T01:29:17.400Z,-4.15
2019-02-25T01:30:21.766Z,-4.11
2019-02-25T01:31:25.432Z,-4.05
2019-02-25T01:32:29.072Z,-4.06
2019-02-25T01:33:32.701Z,-4.09
2019-02-25T01:34:36.341Z,-4.14
2019-02-25T01:35:39.914Z,-4.15
2019-02-25T01:36:43.404Z,-4.17
2019-02-25T01:37:47.108Z,-4.33
2019-02-25T01:38:50.738Z,-4.37
2019-02-25T01:39:54.303Z,-4.36
2019-02-25T01:40:57.868Z,-4.35
2019-02-25T01:42:01.545Z,-4.36
2019-02-25T01:43:05.278Z,-4.37
2019-02-25T01:44:08.913Z,-4.42
2019-02-25T01:45:20.327Z,-4.45
2019-02-25T01:46:23.879Z,-4.43
2019-02-25T01:47:27.414Z,-4.41
2019-02-25T01:48:31.055Z,-4.36
2019-02-25T01:49:35.006Z,-4.31
2019-02-25T01:50:38.640Z,-4.27
2019-02-25T01:51:42.200Z,-4.26
2019-02-25T01:52:45.888Z,-4.25
2019-02-25T01:53:49.521Z,-4.26
2019-02-25T01:54:53.099Z,-4.27
2019-02-25T01:55:56.661Z,-4.27
2019-02-25T01:57:00.613Z,-4.33
2019-02-25T01:58:04.283Z,-4.39
2019-02-25T01:59:07.907Z,-4.44
2019-02-25T02:00:17.426Z,-4.50
2019-02-25T02:01:21.085Z,-4.47
2019-02-25T02:02:24.735Z,-4.42
2019-02-25T02:03:28.411Z,-4.42
2019-02-25T02:04:32.047Z,-4.39
2019-02-25T02:05:35.629Z,-4.39
2019-02-25T02:06:39.266Z,-4.50
2019-02-25T02:07:42.961Z,-4.52
2019-02-25T02:08:46.669Z,-4.52
2019-02-25T02:09:50.303Z,-4.56
2019-02-25T02:10:53.929Z,-4.60
2019-02-25T02:11:57.561Z,-4.61
2019-02-25T02:13:01.236Z,-4.59
2019-02-25T02:14:05.170Z,-4.55
2019-02-25T02:15:11.679Z,-4.60
2019-02-25T02:16:15.314Z,-4.52
2019-02-25T02:17:18.876Z,-4.50
2019-02-25T02:18:22.557Z,-4.51
2019-02-25T02:19:26.126Z,-4.47
2019-02-25T02:20:29.760Z,-4.53
2019-02-25T02:21:33.399Z,-4.61
2019-02-25T02:22:37.036Z,-4.61
2019-02-25T02:23:40.715Z,-4.59
2019-02-25T02:24:44.340Z,-4.59
2019-02-25T02:25:47.972Z,-4.64
2019-02-25T02:26:51.675Z,-4.65
2019-02-25T02:27:55.309Z,-4.68
2019-02-25T02:28:58.984Z,-4.64
2019-02-25T02:30:02.988Z,-4.61
2019-02-25T02:31:06.621Z,-4.55
2019-02-25T02:32:10.187Z,-4.61
2019-02-25T02:33:13.901Z,-4.61
2019-02-25T02:34:17.517Z,-4.61
2019-02-25T02:35:21.153Z,-4.61
2019-02-25T02:36:24.884Z,-4.58
2019-02-25T02:37:28.518Z,-4.63
2019-02-25T02:38:32.007Z,-4.70
2019-02-25T02:39:35.674Z,-4.70
2019-02-25T02:40:39.304Z,-4.76
2019-02-25T02:42:17.131Z,-4.82
2019-02-25T02:43:20.771Z,-4.81
2019-02-25T02:44:24.405Z,-4.87
2019-02-25T02:45:42.314Z,-4.83
2019-02-25T02:46:48.859Z,-4.97
2019-02-25T02:47:58.341Z,-4.97
2019-02-25T02:49:03.278Z,-4.91
2019-02-25T02:50:18.873Z,-4.89
2019-02-25T02:51:22.558Z,-4.85
2019-02-25T02:52:26.208Z,-4.81
2019-02-25T02:53:29.846Z,-4.80
2019-02-25T02:54:33.494Z,-4.79
2019-02-25T02:55:37.128Z,-4.78
2019-02-25T02:56:40.774Z,-4.79
2019-02-25T02:57:44.424Z,-4.75
2019-02-25T02:58:47.966Z,-4.78
2019-02-25T02:59:51.600Z,-4.70
2019-02-25T03:00:55.249Z,-4.68
2019-02-25T03:02:00.823Z,-4.69
2019-02-25T03:03:04.447Z,-4.78
2019-02-25T03:04:08.176Z,-4.95
2019-02-25T03:05:13.913Z,-5.01
2019-02-25T03:06:17.621Z,-5.04
2019-02-25T03:07:21.427Z,-4.94
2019-02-25T03:08:25.361Z,-4.92
2019-02-25T03:09:29.001Z,-4.91
2019-02-25T03:10:32.643Z,-4.93
2019-02-25T03:11:36.209Z,-4.95
2019-02-25T03:12:39.894Z,-5.00
2019-02-25T03:13:43.529Z,-5.05
2019-02-25T03:14:47.166Z,-5.09
2019-02-25T03:15:50.728Z,-5.18
2019-02-25T03:16:54.367Z,-5.26
2019-02-25T03:17:58.032Z,-5.13
2019-02-25T03:19:02.593Z,-5.05
2019-02-25T03:20:08.222Z,-5.00
2019-02-25T03:21:11.871Z,-4.99
2019-02-25T03:22:15.828Z,-4.98
2019-02-25T03:23:19.499Z,-4.97
2019-02-25T03:24:23.140Z,-4.97
2019-02-25T03:25:26.884Z,-4.89
2019-02-25T03:26:30.506Z,-4.86
2019-02-25T03:27:34.541Z,-4.83
2019-02-25T03:28:38.375Z,-4.92
2019-02-25T03:29:42.024Z,-5.02
2019-02-25T03:30:45.613Z,-5.14
2019-02-25T03:31:49.247Z,-5.21
2019-02-25T03:32:53.316Z,-5.27
2019-02-25T03:33:56.947Z,-5.28
2019-02-25T03:35:00.537Z,-5.21
2019-02-25T03:36:04.168Z,-5.14
2019-02-25T03:37:07.816Z,-5.13
2019-02-25T03:38:11.382Z,-5.18
2019-02-25T03:39:15.049Z,-5.15
2019-02-25T03:40:25.211Z,-5.21
2019-02-25T03:41:28.844Z,-5.22
2019-02-25T03:42:32.491Z,-5.27
2019-02-25T03:43:36.120Z,-5.23
2019-02-25T03:44:39.799Z,-5.16
2019-02-25T03:45:43.667Z,-5.14
2019-02-25T03:46:51.674Z,-5.22
2019-02-25T03:47:57.750Z,-5.26
2019-02-25T03:49:01.386Z,-5.21
2019-02-25T03:50:10.696Z,-5.23
2019-02-25T03:51:20.432Z,-5.25
2019-02-25T03:52:24.065Z,-5.32
2019-02-25T03:53:28.031Z,-5.23
2019-02-25T03:54:31.657Z,-5.21
2019-02-25T03:55:35.333Z,-5.24
2019-02-25T03:56:38.971Z,-5.17
2019-02-25T03:57:42.707Z,-5.16
2019-02-25T03:58:46.334Z,-5.18
2019-02-25T03:59:49.970Z,-5.29
2019-02-25T04:00:53.792Z,-5.28
2019-02-25T04:02:01.403Z,-5.26
2019-02-25T04:03:05.357Z,-5.21
2019-02-25T04:04:10.120Z,-5.13
2019-02-25T04:05:16.493Z,-5.13
2019-02-25T04:06:22.708Z,-5.12
2019-02-25T04:07:26.547Z,-5.01
2019-02-25T04:08:30.993Z,-5.11
2019-02-25T04:09:34.988Z,-5.19
2019-02-25T04:10:38.648Z,-5.10
2019-02-25T04:11:42.352Z,-5.13
2019-02-25T04:12:45.991Z,-5.17
2019-02-25T04:13:49.547Z,-5.20
2019-02-25T04:14:53.172Z,-5.20
2019-02-25T04:15:56.834Z,-5.17
2019-02-25T04:17:00.516Z,-5.17
2019-02-25T04:18:04.145Z,-5.23
2019-02-25T04:19:07.785Z,-5.21
2019-02-25T04:20:14.304Z,-5.13
2019-02-25T04:21:20.076Z,-5.16
2019-02-25T04:22:27.659Z,-5.12
2019-02-25T04:23:31.300Z,-5.13
2019-02-25T04:24:34.932Z,-5.15
2019-02-25T04:25:38.511Z,-5.18
2019-02-25T04:26:42.147Z,-5.15
2019-02-25T04:27:45.832Z,-5.08
2019-02-25T04:28:49.478Z,-5.07
2019-02-25T04:29:53.040Z,-4.99
2019-02-25T04:30:56.679Z,-5.05
2019-02-25T04:32:00.312Z,-5.03
2019-02-25T04:33:03.991Z,-5.07
2019-02-25T04:34:07.688Z,-5.16
2019-02-25T04:35:12.847Z,-5.20
2019-02-25T04:36:16.484Z,-5.19
2019-02-25T04:37:20.193Z,-5.29
2019-02-25T04:38:23.894Z,-5.32
2019-02-25T04:39:27.529Z,-5.31
2019-02-25T04:40:31.166Z,-5.23
2019-02-25T04:41:34.731Z,-5.27
2019-02-25T04:42:38.377Z,-5.25
2019-02-25T04:43:42.040Z,-5.25
2019-02-25T04:44:45.685Z,-5.30
2019-02-25T04:45:49.403Z,-5.34
2019-02-25T04:46:52.977Z,-5.28
2019-02-25T04:47:56.570Z,-5.21
2019-02-25T04:49:00.253Z,-5.19
2019-02-25T04:50:04.582Z,-5.21
2019-02-25T04:51:08.236Z,-5.27
2019-02-25T04:52:11.888Z,-5.20
2019-02-25T04:53:15.522Z,-5.10
2019-02-25T04:54:19.159Z,-5.04
2019-02-25T04:55:22.805Z,-5.16
2019-02-25T04:56:26.442Z,-5.29
2019-02-25T04:57:30.028Z,-5.27
2019-02-25T04:58:33.661Z,-5.01
2019-02-25T04:59:37.681Z,-4.90
2019-02-25T05:00:41.325Z,-4.96
2019-02-25T05:01:44.956Z,-4.99
2019-02-25T05:02:48.693Z,-4.95
2019-02-25T05:03:52.341Z,-5.04
2019-02-25T05:04:55.975Z,-5.23
2019-02-25T05:05:59.611Z,-5.30
2019-02-25T05:07:03.268Z,-5.31
2019-02-25T05:08:07.236Z,-5.45
2019-02-25T05:09:10.997Z,-5.55
2019-02-25T05:10:17.909Z,-5.47
2019-02-25T05:11:23.185Z,-5.44
2019-02-25T05:12:26.753Z,-5.40
2019-02-25T05:13:30.431Z,-5.48
2019-02-25T05:14:34.077Z,-5.50
2019-02-25T05:15:37.711Z,-5.46
2019-02-25T05:16:41.722Z,-5.46
2019-02-25T05:17:45.361Z,-5.52
2019-02-25T05:18:49.035Z,-5.55
2019-02-25T05:19:52.744Z,-5.60
2019-02-25T05:20:56.392Z,-5.64
2019-02-25T05:21:59.945Z,-5.57
2019-02-25T05:23:03.611Z,-5.54
2019-02-25T05:24:07.275Z,-5.48
2019-02-25T05:25:12.417Z,-5.53
2019-02-25T05:26:16.058Z,-5.54
2019-02-25T05:27:19.696Z,-5.45
2019-02-25T05:28:23.334Z,-5.45
2019-02-25T05:29:27.123Z,-5.43
2019-02-25T05:30:30.768Z,-5.34
2019-02-25T05:31:34.409Z,-5.32
2019-02-25T05:32:38.051Z,-5.24
2019-02-25T05:33:42.002Z,-5.11
2019-02-25T05:34:45.680Z,-4.99
2019-02-25T05:35:49.330Z,-5.02
2019-02-25T05:36:52.975Z,-4.94
2019-02-25T05:37:56.606Z,-4.93
2019-02-25T05:39:00.248Z,-5.00
2019-02-25T05:40:04.930Z,-5.03
2019-02-25T05:41:09.865Z,-5.16
2019-02-25T05:42:13.518Z,-5.26
2019-02-25T05:43:17.081Z,-5.30
2019-02-25T05:44:20.717Z,-5.27
2019-02-25T05:45:24.453Z,-5.21
2019-02-25T05:46:28.029Z,-5.18
2019-02-25T05:47:31.591Z,-5.25
2019-02-25T05:48:36.865Z,-5.26
2019-02-25T05:49:40.497Z,-5.32
2019-02-25T05:50:44.250Z,-5.32
2019-02-25T05:51:47.884Z,-5.38
2019-02-25T05:52:51.535Z,-5.49
2019-02-25T05:53:55.089Z,-5.57
2019-02-25T05:54:58.659Z,-5.64
2019-02-25T05:56:02.363Z,-5.65
2019-02-25T05:57:06.064Z,-5.63
2019-02-25T05:58:09.794Z,-5.69
2019-02-25T05:59:13.484Z,-5.66
2019-02-25T06:00:23.595Z,-5.72
2019-02-25T06:01:27.308Z,-5.62
2019-02-25T06:02:30.979Z,-5.57
2019-02-25T06:03:34.547Z,-5.63
2019-02-25T06:04:38.298Z,-5.63
2019-02-25T06:05:41.937Z,-5.67
2019-02-25T06:06:45.913Z,-5.63
2019-02-25T06:07:49.566Z,-5.59
2019-02-25T06:08:53.714Z,-5.52
2019-02-25T06:09:57.280Z,-5.55
2019-02-25T06:11:00.853Z,-5.57
2019-02-25T06:12:04.525Z,-5.60
2019-02-25T06:13:08.182Z,-5.57
2019-02-25T06:14:11.828Z,-5.48
2019-02-25T06:15:19.164Z,-5.48
2019-02-25T06:16:22.885Z,-5.52
2019-02-25T06:17:26.575Z,-5.51
2019-02-25T06:18:30.236Z,-5.53
2019-02-25T06:19:33.859Z,-5.47
2019-02-25T06:20:41.799Z,-5.45
2019-02-25T06:21:45.425Z,-5.42
2019-02-25T06:22:49.022Z,-5.25
2019-02-25T06:23:52.589Z,-5.26
2019-02-25T06:24:56.159Z,-5.23
2019-02-25T06:25:59.728Z,-5.16
2019-02-25T06:27:03.376Z,-5.02
2019-02-25T06:28:07.043Z,-4.63
2019-02-25T06:29:10.679Z,-4.37
2019-02-25T06:30:18.975Z,-4.36
2019-02-25T06:31:23.023Z,-4.43
2019-02-25T06:32:26.658Z,-4.41
2019-02-25T06:33:30.262Z,-4.46
2019-02-25T06:34:33.933Z,-4.52
2019-02-25T06:35:37.535Z,-4.54
2019-02-25T06:36:41.179Z,-4.60
2019-02-25T06:37:44.874Z,-4.62
2019-02-25T06:38:48.623Z,-4.54
2019-02-25T06:39:52.269Z,-4.45
2019-02-25T06:40:55.911Z,-4.46
2019-02-25T06:41:59.554Z,-4.46
2019-02-25T06:43:03.201Z,-4.48
2019-02-25T06:44:06.876Z,-4.45
2019-02-25T06:45:12.824Z,-4.37
2019-02-25T06:46:16.460Z,-4.30
2019-02-25T06:47:20.100Z,-4.30
2019-02-25T06:48:23.791Z,-4.29
2019-02-25T06:49:27.383Z,-4.26
2019-02-25T06:50:31.028Z,-4.19
2019-02-25T06:51:34.657Z,-4.06
2019-02-25T06:52:38.307Z,-4.03
2019-02-25T06:53:41.869Z,-4.01
2019-02-25T06:54:45.563Z,-3.97
2019-02-25T06:55:49.765Z,-3.94
2019-02-25T06:56:53.405Z,-3.95
2019-02-25T06:57:57.089Z,-4.08
2019-02-25T06:59:00.751Z,-4.10
2019-02-25T07:00:07.545Z,-4.02
2019-02-25T07:01:11.204Z,-3.94
2019-02-25T07:02:14.850Z,-3.78
2019-02-25T07:03:18.490Z,-3.74
2019-02-25T07:04:23.752Z,-3.73
2019-02-25T07:05:35.103Z,-3.68
2019-02-25T07:06:40.386Z,-3.68
2019-02-25T07:08:00.772Z,-3.65
2019-02-25T07:09:06.648Z,-3.66
2019-02-25T07:10:11.934Z,-3.54
2019-02-25T07:11:17.143Z,-3.49
2019-02-25T07:12:31.404Z,-3.44
2019-02-25T07:13:48.550Z,-3.36
2019-02-25T07:15:11.992Z,-3.39
2019-02-25T07:16:23.008Z,-3.28
2019-02-25T07:17:28.299Z,-2.97
2019-02-25T07:18:49.511Z,-2.93
2019-02-25T07:19:54.748Z,-2.81
2019-02-25T07:21:02.764Z,-2.64
2019-02-25T07:22:13.315Z,-2.58
2019-02-25T07:23:20.815Z,-2.43
2019-02-25T07:24:37.879Z,-2.38
2019-02-25T07:25:43.206Z,-2.32
2019-02-25T07:27:05.295Z,-2.21
2019-02-25T07:28:10.605Z,-1.96
2019-02-25T07:29:21.800Z,-1.79
2019-02-25T07:30:27.091Z,-1.92
2019-02-25T07:31:38.453Z,-1.97
2019-02-25T07:32:46.442Z,-2.03
2019-02-25T07:34:08.041Z,-1.84
2019-02-25T07:35:19.385Z,-1.90
2019-02-25T07:36:24.684Z,-2.00
2019-02-25T07:37:32.838Z,-2.11
2019-02-25T07:38:39.755Z,-1.96
2019-02-25T07:39:47.788Z,-1.74
2019-02-25T07:41:02.293Z,-1.73
2019-02-25T07:42:16.836Z,-1.73
2019-02-25T07:43:25.141Z,-1.48
2019-02-25T07:44:30.429Z,-1.27
2019-02-25T07:45:35.715Z,-1.11
2019-02-25T07:46:41.003Z,-0.79
2019-02-25T07:47:49.259Z,-0.64
2019-02-25T07:48:54.580Z,-0.42
2019-02-25T07:50:02.565Z,-0.28
2019-02-25T07:51:10.569Z,-0.08
2019-02-25T07:52:34.209Z,0.18
2019-02-25T07:53:54.812Z,0.41
2019-02-25T07:55:02.664Z,0.59
2019-02-25T07:56:26.175Z,0.82
2019-02-25T07:57:31.447Z,1.00
2019-02-25T07:58:39.280Z,1.11
2019-02-25T07:59:47.290Z,1.25
2019-02-25T08:00:55.150Z,1.55
2019-02-25T08:02:00.750Z,1.59
2019-02-25T08:03:08.604Z,1.75
2019-02-25T08:04:31.892Z,1.94
2019-02-25T08:05:40.086Z,2.18
2019-02-25T08:07:01.654Z,2.23
2019-02-25T08:08:06.929Z,2.62
2019-02-25T08:09:12.200Z,2.93
2019-02-25T08:10:20.803Z,3.05
2019-02-25T08:11:29.067Z,3.12
2019-02-25T08:12:50.741Z,3.42
2019-02-25T08:14:01.786Z,3.62
2019-02-25T08:15:09.201Z,3.88
2019-02-25T08:16:16.938Z,4.08
2019-02-25T08:17:24.854Z,4.32
2019-02-25T08:18:35.669Z,4.46
2019-02-25T08:19:59.144Z,4.72
2019-02-25T08:21:19.287Z,5.09
2019-02-25T08:22:42.919Z,5.25
2019-02-25T08:23:48.295Z,5.26
2019-02-25T08:25:02.621Z,5.35
2019-02-25T08:26:17.047Z,5.48
2019-02-25T08:27:28.171Z,5.29
2019-02-25T08:28:36.372Z,5.37
2019-02-25T08:29:41.647Z,5.61
2019-02-25T08:30:49.863Z,5.73
2019-02-25T08:31:55.142Z,5.82
2019-02-25T08:33:06.301Z,5.85
2019-02-25T08:34:18.629Z,6.08
2019-02-25T08:36:03.495Z,6.28
2019-02-25T08:37:23.568Z,6.40
2019-02-25T08:38:43.616Z,6.00
2019-02-25T08:39:51.840Z,5.97
2019-02-25T08:40:58.819Z,6.01
2019-02-25T08:42:06.979Z,6.01
2019-02-25T08:43:22.302Z,6.02
2019-02-25T08:44:27.588Z,6.06
2019-02-25T08:45:48.048Z,6.42
2019-02-25T08:46:56.310Z,6.50
2019-02-25T08:48:04.707Z,6.59
2019-02-25T08:49:15.759Z,6.61
2019-02-25T08:50:19.387Z,6.63
2019-02-25T08:51:23.146Z,6.82
2019-02-25T08:52:26.773Z,6.72
2019-02-25T08:53:30.427Z,6.40
2019-02-25T08:54:34.044Z,6.54
2019-02-25T08:55:37.708Z,6.71
2019-02-25T08:56:41.372Z,6.93
2019-02-25T08:57:44.988Z,7.00
2019-02-25T08:58:48.620Z,6.99
2019-02-25T08:59:52.360Z,6.94
2019-02-25T09:00:56.112Z,7.13
2019-02-25T09:01:59.776Z,7.16
2019-02-25T09:03:03.407Z,6.99
2019-02-25T09:04:07.034Z,7.00
2019-02-25T09:05:13.862Z,6.96
2019-02-25T09:06:17.614Z,6.79
2019-02-25T09:07:21.280Z,7.02
2019-02-25T09:08:24.915Z,6.92
2019-02-25T09:09:28.612Z,7.07
2019-02-25T09:10:32.247Z,7.15
2019-02-25T09:11:35.877Z,7.18
2019-02-25T09:12:39.548Z,7.28
2019-02-25T09:13:43.182Z,7.56
2019-02-25T09:14:46.890Z,7.92
2019-02-25T09:15:50.524Z,8.18
2019-02-25T09:16:54.160Z,8.35
2019-02-25T09:17:56.516Z,8.58
2019-02-25T09:19:00.154Z,8.83
2019-02-25T09:20:04.402Z,9.01
2019-02-25T09:21:08.429Z,9.35
2019-02-25T09:22:11.984Z,9.54
2019-02-25T09:23:15.643Z,9.74
2019-02-25T09:24:19.277Z,9.84
2019-02-25T09:25:22.908Z,9.95
2019-02-25T09:26:26.467Z,9.96
2019-02-25T09:27:30.091Z,10.17
2019-02-25T09:28:33.755Z,10.62
2019-02-25T09:29:37.390Z,10.99
2019-02-25T09:30:41.019Z,10.89
2019-02-25T09:31:44.654Z,11.32
2019-02-25T09:32:48.297Z,11.67
2019-02-25T09:33:51.950Z,11.49
2019-02-25T09:34:55.519Z,11.63
2019-02-25T09:35:59.161Z,11.75
2019-02-25T09:37:02.732Z,11.71
2019-02-25T09:38:06.728Z,12.37
2019-02-25T09:39:13.394Z,12.61
2019-02-25T09:40:18.225Z,12.74
2019-02-25T09:41:29.668Z,13.56
2019-02-25T09:42:27.229Z,13.56
2019-02-25T09:43:30.868Z,13.35
2019-02-25T09:44:34.548Z,12.96
2019-02-25T09:45:38.193Z,13.72
2019-02-25T09:46:41.823Z,13.84
2019-02-25T09:47:45.459Z,13.87
2019-02-25T09:48:49.102Z,14.22
2019-02-25T09:49:52.767Z,14.22
2019-02-25T09:50:56.397Z,14.17
2019-02-25T09:52:01.093Z,14.17
2019-02-25T09:53:04.723Z,14.49
2019-02-25T09:54:08.357Z,14.24
2019-02-25T09:55:14.034Z,14.64
2019-02-25T09:56:17.707Z,15.20
2019-02-25T09:57:21.282Z,14.92
2019-02-25T09:58:24.918Z,15.18
2019-02-25T09:59:28.547Z,15.22
2019-02-25T10:00:32.216Z,15.28
2019-02-25T10:01:35.853Z,14.90
2019-02-25T10:02:39.560Z,14.73
2019-02-25T10:03:43.246Z,14.73
2019-02-25T10:04:46.839Z,14.12
2019-02-25T10:05:50.582Z,13.64
2019-02-25T10:07:02.119Z,13.16
2019-02-25T10:08:00.642Z,13.16
2019-02-25T10:09:06.488Z,13.81
2019-02-25T10:10:15.902Z,13.81
2019-02-25T10:11:19.725Z,13.75
2019-02-25T10:12:23.712Z,14.00
2019-02-25T10:13:27.588Z,14.30
2019-02-25T10:14:32.306Z,14.07
2019-02-25T10:15:35.951Z,14.47
2019-02-25T10:16:39.619Z,13.96
2019-02-25T10:17:43.258Z,14.40
2019-02-25T10:18:46.891Z,14.18
2019-02-25T10:19:50.627Z,14.18
2019-02-25T10:20:54.328Z,13.95
2019-02-25T10:21:58.005Z,13.85
2019-02-25T10:23:09.580Z,13.81
2019-02-25T10:24:14.537Z,14.84
2019-02-25T10:25:18.174Z,14.84
2019-02-25T10:26:28.137Z,15.53
2019-02-25T10:27:34.518Z,16.16
2019-02-25T10:28:38.170Z,15.91
2019-02-25T10:29:45.927Z,15.86
2019-02-25T10:30:54.110Z,15.71
2019-02-25T10:31:57.823Z,15.71
2019-02-25T10:33:03.197Z,15.17
2019-02-25T10:34:07.655Z,15.05
2019-02-25T10:35:14.106Z,14.87
2019-02-25T10:36:18.173Z,14.33
2019-02-25T10:37:24.859Z,13.92
2019-02-25T10:38:30.672Z,14.33
2019-02-25T10:39:34.301Z,15.06
2019-02-25T10:40:38.318Z,15.32
2019-02-25T10:41:45.357Z,15.01
2019-02-25T10:42:55.099Z,14.37
2019-02-25T10:44:00.240Z,13.87
2019-02-25T10:45:07.346Z,13.88
2019-02-25T10:46:13.469Z,13.42
2019-02-25T10:47:17.814Z,13.20
2019-02-25T10:48:23.516Z,13.20
2019-02-25T10:49:31.417Z,13.70
2019-02-25T10:50:35.987Z,14.15
2019-02-25T10:51:41.263Z,14.32
2019-02-25T10:52:47.651Z,14.62
2019-02-25T10:53:51.623Z,14.34
2019-02-25T10:54:58.196Z,14.01
2019-02-25T10:56:07.821Z,13.95
2019-02-25T10:57:12.451Z,13.32
2019-02-25T10:58:16.142Z,12.72
2019-02-25T10:59:23.482Z,12.73
2019-02-25T11:00:27.394Z,12.49
2019-02-25T11:01:31.596Z,11.94
2019-02-25T11:02:43.874Z,11.94
2019-02-25T11:03:40.691Z,11.15
2019-02-25T11:04:44.424Z,11.15
2019-02-25T11:05:48.117Z,11.04
2019-02-25T11:06:51.723Z,11.08
2019-02-25T11:07:55.284Z,10.66
2019-02-25T11:09:00.573Z,10.61
2019-02-25T11:10:08.293Z,10.40
2019-02-25T11:11:20.996Z,10.38
2019-02-25T11:12:25.828Z,10.44
2019-02-25T11:13:31.964Z,10.43
2019-02-25T11:14:38.017Z,10.32
2019-02-25T11:15:42.390Z,10.34
2019-02-25T11:16:48.113Z,10.13
2019-02-25T11:17:53.800Z,10.02
2019-02-25T11:18:58.773Z,10.02
2019-02-25T11:20:03.800Z,10.17
2019-02-25T11:21:08.970Z,10.34
2019-02-25T11:22:14.658Z,10.09
2019-02-25T11:23:21.414Z,10.02
2019-02-25T11:24:25.419Z,9.88
2019-02-25T11:25:30.198Z,9.72
2019-02-25T11:26:35.338Z,9.67
2019-02-25T11:27:39.972Z,9.69
2019-02-25T11:28:43.860Z,9.52
2019-02-25T11:29:48.464Z,9.52
2019-02-25T11:30:53.741Z,9.56
2019-02-25T11:31:57.632Z,9.51
2019-02-25T11:33:01.309Z,9.65
2019-02-25T11:34:05.800Z,9.76
2019-02-25T11:35:12.997Z,9.85
2019-02-25T11:36:17.904Z,9.71
2019-02-25T11:37:24.476Z,9.50
2019-02-25T11:38:28.797Z,9.46
2019-02-25T11:39:34.926Z,9.48
2019-02-25T11:40:38.587Z,9.41
2019-02-25T11:41:42.226Z,9.40
2019-02-25T11:42:45.856Z,9.27
2019-02-25T11:43:50.996Z,9.37
2019-02-25T11:44:57.057Z,9.39
2019-02-25T11:46:00.861Z,9.13
2019-02-25T11:47:04.499Z,9.17
2019-02-25T11:48:08.222Z,9.34
2019-02-25T11:49:11.879Z,9.31
2019-02-25T11:50:17.555Z,9.28
2019-02-25T11:51:21.516Z,9.19
2019-02-25T11:52:25.612Z,9.23
2019-02-25T11:53:29.237Z,9.31
2019-02-25T11:54:32.898Z,9.17
2019-02-25T11:55:36.559Z,8.94
2019-02-25T11:56:40.176Z,8.94
2019-02-25T11:57:44.882Z,8.96
2019-02-25T11:58:48.517Z,8.85
2019-02-25T11:59:52.172Z,8.89
2019-02-25T12:00:55.819Z,8.84
2019-02-25T12:01:59.430Z,8.81
2019-02-25T12:03:03.049Z,8.84
2019-02-25T12:04:06.677Z,8.82
2019-02-25T12:05:11.583Z,8.82
2019-02-25T12:06:15.211Z,8.90
2019-02-25T12:07:19.198Z,8.83
2019-02-25T12:08:22.764Z,8.82
2019-02-25T12:09:26.401Z,8.72
2019-02-25T12:10:30.106Z,8.62
2019-02-25T12:11:33.744Z,8.54
2019-02-25T12:12:37.382Z,8.45
2019-02-25T12:13:40.941Z,8.34
2019-02-25T12:14:44.571Z,8.50
2019-02-25T12:15:48.300Z,8.45
2019-02-25T12:16:51.941Z,8.51
2019-02-25T12:17:55.573Z,8.43
2019-02-25T12:18:59.203Z,8.29
2019-02-25T12:20:02.923Z,7.98
2019-02-25T12:21:06.769Z,7.89
2019-02-25T12:22:10.407Z,7.98
2019-02-25T12:23:14.055Z,8.14
2019-02-25T12:24:17.685Z,8.01
2019-02-25T12:25:23.665Z,8.06
2019-02-25T12:26:27.344Z,8.20
2019-02-25T12:27:30.975Z,8.12
2019-02-25T12:28:34.617Z,8.33
2019-02-25T12:29:38.573Z,8.28
2019-02-25T12:30:42.277Z,8.33
2019-02-25T12:31:45.936Z,8.22
2019-02-25T12:32:49.574Z,8.09
2019-02-25T12:33:53.212Z,8.32
2019-02-25T12:34:56.847Z,8.41
2019-02-25T12:36:00.486Z,8.44
2019-02-25T12:37:04.155Z,8.42
2019-02-25T12:38:07.856Z,8.46
2019-02-25T12:39:11.598Z,8.39
2019-02-25T12:40:16.344Z,8.37
2019-02-25T12:41:20.054Z,8.31
2019-02-25T12:42:23.725Z,8.39
2019-02-25T12:43:27.355Z,8.32
2019-02-25T12:44:30.989Z,8.24
2019-02-25T12:45:34.622Z,8.08
2019-02-25T12:46:38.349Z,7.85
2019-02-25T12:47:42.151Z,7.73
2019-02-25T12:48:45.769Z,7.86
2019-02-25T12:49:49.395Z,7.84
2019-02-25T12:50:53.021Z,7.99
2019-02-25T12:51:56.662Z,8.04
2019-02-25T12:53:00.325Z,8.15
2019-02-25T12:54:03.949Z,8.09
2019-02-25T12:55:10.181Z,8.04
2019-02-25T12:56:13.842Z,8.06
2019-02-25T12:57:17.475Z,8.05
2019-02-25T12:58:21.206Z,8.07
2019-02-25T12:59:24.959Z,8.14
2019-02-25T13:00:28.512Z,8.42
2019-02-25T13:01:32.084Z,8.50
2019-02-25T13:02:35.714Z,8.44
2019-02-25T13:03:39.385Z,8.33
2019-02-25T13:04:42.952Z,8.36
2019-02-25T13:05:46.582Z,8.32
2019-02-25T13:06:50.207Z,8.30
2019-02-25T13:07:53.942Z,8.26
2019-02-25T13:08:57.604Z,8.29
2019-02-25T13:10:01.241Z,8.35
2019-02-25T13:11:04.916Z,8.78
2019-02-25T13:12:08.511Z,9.05
2019-02-25T13:13:12.140Z,9.13
2019-02-25T13:14:15.800Z,9.03
2019-02-25T13:15:21.601Z,8.83
2019-02-25T13:16:25.163Z,8.86
2019-02-25T13:17:28.803Z,8.65
2019-02-25T13:18:32.440Z,8.43
2019-02-25T13:19:36.200Z,8.34
2019-02-25T13:20:39.797Z,8.35
2019-02-25T13:21:43.424Z,8.43
2019-02-25T13:22:47.123Z,8.62
2019-02-25T13:23:50.755Z,8.96
2019-02-25T13:24:54.410Z,9.45
2019-02-25T13:26:07.150Z,9.97
2019-02-25T13:27:05.658Z,10.26
2019-02-25T13:28:08.752Z,10.30
2019-02-25T13:29:12.381Z,10.93
2019-02-25T13:30:17.127Z,11.23
2019-02-25T13:31:20.747Z,10.96
2019-02-25T13:32:24.383Z,10.74
2019-02-25T13:33:28.013Z,11.14
2019-02-25T13:34:31.922Z,11.61
2019-02-25T13:35:35.598Z,11.50
2019-02-25T13:36:39.249Z,12.01
2019-02-25T13:37:43.033Z,12.59
2019-02-25T13:38:46.702Z,13.13
2019-02-25T13:39:50.339Z,13.19
2019-02-25T13:40:54.018Z,13.19
2019-02-25T13:41:57.652Z,13.54
2019-02-25T13:43:01.286Z,13.54
2019-02-25T13:44:05.003Z,13.70
2019-02-25T13:45:11.447Z,13.50
2019-02-25T13:46:15.044Z,13.50
2019-02-25T13:47:18.852Z,13.45
2019-02-25T13:48:22.760Z,12.83
2019-02-25T13:49:26.488Z,12.83
2019-02-25T13:50:30.112Z,12.85
2019-02-25T13:51:33.775Z,12.65
2019-02-25T13:52:47.257Z,12.85
2019-02-25T13:53:42.799Z,12.88
2019-02-25T13:54:46.437Z,13.22
2019-02-25T13:55:50.079Z,13.28
2019-02-25T13:56:53.600Z,13.28
2019-02-25T13:57:57.796Z,12.94
2019-02-25T13:59:01.557Z,12.45
2019-02-25T14:00:17.231Z,12.32
2019-02-25T14:01:21.008Z,12.50
2019-02-25T14:02:24.960Z,12.99
2019-02-25T14:03:28.938Z,12.99
2019-02-25T14:04:32.740Z,13.06
2019-02-25T14:05:36.439Z,13.06